Time;durP1;ratioP1;P1;durP2;ratioP2;P2;SDS_P1;SDS_P2;PMS_P1;PMS_P2;Temp;Humidity;BMP_temperature;BMP_pressure;BME280_temperature;BME280_humidity;BME280_pressure;Samples;Min_cycle;Max_cycle;Signal;HPM_P1;HPM_P2
2023/06/03 00:00:23;;;;;;;1.67;0.70;;;21.20;50.60;;;;;;6040042;23;20382;-81
2023/06/03 00:02:52;;;;;;;1.50;0.80;;;21.20;51.10;;;;;;6039524;23;20387;-81
2023/06/03 00:05:23;;;;;;;1.15;0.60;;;21.10;50.70;;;;;;6039003;23;20374;-81
2023/06/03 00:07:49;;;;;;;2.08;0.60;;;21.10;50.80;;;;;;6062721;23;20762;-80
2023/06/03 00:10:19;;;;;;;1.20;0.50;;;21.10;50.50;;;;;;6063170;23;20705;-82
2023/06/03 00:12:46;;;;;;;1.50;0.68;;;21.10;50.80;;;;;;6039121;23;20383;-82
2023/06/03 00:15:13;;;;;;;1.92;0.73;;;21.00;52.10;;;;;;6039101;23;20390;-80
2023/06/03 00:17:40;;;;;;;1.67;0.65;;;21.00;51.80;;;;;;6039462;23;20722;-81
2023/06/03 00:20:09;;;;;;;1.63;0.60;;;20.90;51.80;;;;;;6039017;23;20386;-81
2023/06/03 00:22:38;;;;;;;2.10;0.85;;;20.90;52.30;;;;;;6039487;23;20419;-81
2023/06/03 00:25:07;;;;;;;1.75;0.60;;;20.80;52.30;;;;;;6038190;23;20384;-81
2023/06/03 00:27:35;;;;;;;1.00;0.60;;;20.70;52.60;;;;;;6037367;23;20458;-80
2023/06/03 00:30:03;;;;;;;1.08;0.50;;;20.60;52.70;;;;;;6036479;23;20386;-81
2023/06/03 00:32:30;;;;;;;1.40;0.57;;;20.60;53.20;;;;;;6062535;23;20747;-82
2023/06/03 00:34:57;;;;;;;0.73;0.45;;;20.50;52.50;;;;;;6038477;23;20479;-80
2023/06/03 00:37:25;;;;;;;2.08;0.60;;;20.50;52.90;;;;;;6037436;23;20714;-85
2023/06/03 00:39:52;;;;;;;1.15;0.55;;;20.50;53.10;;;;;;6038589;23;20716;-82
2023/06/03 00:42:19;;;;;;;1.50;0.60;;;20.40;52.50;;;;;;6036744;23;20810;-81
2023/06/03 00:44:46;;;;;;;1.98;0.63;;;20.40;52.50;;;;;;6037982;23;20466;-82
2023/06/03 00:47:17;;;;;;;1.10;0.60;;;20.40;53.00;;;;;;6037056;23;21249;-82
2023/06/03 00:49:45;;;;;;;1.77;0.70;;;20.30;53.60;;;;;;6037702;23;20383;-81
2023/06/03 00:52:15;;;;;;;0.90;0.50;;;20.30;53.80;;;;;;6036665;23;20391;-81
2023/06/03 00:54:42;;;;;;;1.20;0.60;;;20.20;54.20;;;;;;6038148;23;20382;-81
2023/06/03 00:57:10;;;;;;;1.57;0.70;;;20.20;54.80;;;;;;6022560;23;20457;-82
2023/06/03 00:59:37;;;;;;;1.73;0.55;;;20.10;55.00;;;;;;6038264;23;20394;-82
2023/06/03 01:02:04;;;;;;;0.98;0.68;;;20.00;55.30;;;;;;6036668;23;20415;-80
2023/06/03 01:04:32;;;;;;;1.50;0.60;;;20.00;55.60;;;;;;6072147;23;20382;-80
2023/06/03 01:07:16;;;;;;;1.10;0.60;;;20.00;55.50;;;;;;6093696;23;20391;-80
2023/06/03 01:09:55;;;;;;;2.17;0.63;;;20.00;55.90;;;;;;6093718;23;20877;-80
2023/06/03 01:12:50;;;;;;;1.77;0.60;;;19.90;56.80;;;;;;6093593;23;20383;-81
2023/06/03 01:15:24;;;;;;;1.77;0.70;;;19.80;56.80;;;;;;6094438;23;20379;-80
2023/06/03 01:17:52;;;;;;;0.95;0.50;;;19.80;56.80;;;;;;6120132;23;20371;-80
2023/06/03 01:20:26;;;;;;;1.38;0.55;;;19.70;56.00;;;;;;6095105;23;20380;-80
2023/06/03 01:23:16;;;;;;;0.98;0.60;;;19.80;55.50;;;;;;6094218;23;20451;-80
2023/06/03 01:25:43;;;;;;;1.00;0.68;;;19.80;55.70;;;;;;6093101;23;20386;-80
2023/06/03 01:28:12;;;;;;;1.05;0.60;;;19.90;55.50;;;;;;6120982;23;20386;-82
2023/06/03 01:30:39;;;;;;;1.67;0.60;;;19.90;55.70;;;;;;6119748;23;20387;-81
2023/06/03 01:33:06;;;;;;;0.60;0.50;;;19.90;55.30;;;;;;6094665;23;20769;-80
2023/06/03 01:35:34;;;;;;;0.88;0.55;;;19.90;55.30;;;;;;6093648;23;20414;-80
2023/06/03 01:38:01;;;;;;;1.90;0.80;;;19.90;55.90;;;;;;6120178;23;20435;-80
2023/06/03 01:40:30;;;;;;;1.10;0.95;;;19.90;56.00;;;;;;6091839;23;20695;-80
2023/06/03 01:42:57;;;;;;;1.13;0.77;;;19.90;56.40;;;;;;6118079;23;20376;-80
2023/06/03 01:45:24;;;;;;;1.42;0.70;;;19.90;56.60;;;;;;6094886;23;20380;-80
2023/06/03 01:47:51;;;;;;;1.30;0.73;;;19.90;56.80;;;;;;6093010;23;20380;-80
2023/06/03 01:50:21;;;;;;;1.38;0.77;;;19.80;57.50;;;;;;6094518;23;20745;-80
2023/06/03 01:52:48;;;;;;;1.00;0.80;;;19.80;57.80;;;;;;6093292;23;20387;-80
2023/06/03 01:55:15;;;;;;;1.67;0.77;;;19.80;58.90;;;;;;6093983;23;20379;-79
2023/06/03 01:57:42;;;;;;;3.90;0.88;;;19.70;58.70;;;;;;6093795;23;20376;-80
2023/06/03 02:00:11;;;;;;;1.13;0.70;;;19.70;58.60;;;;;;6120106;23;20793;-79
2023/06/03 02:02:38;;;;;;;0.90;0.60;;;19.70;58.70;;;;;;6093659;23;20392;-80
2023/06/03 02:05:05;;;;;;;1.80;0.70;;;19.70;58.90;;;;;;6066465;23;20385;-79
2023/06/03 02:07:32;;;;;;;1.30;0.73;;;19.60;59.20;;;;;;6090588;23;20769;-79
2023/06/03 02:09:59;;;;;;;0.97;0.70;;;19.60;59.90;;;;;;6089149;23;20374;-80
2023/06/03 02:12:27;;;;;;;1.67;0.97;;;19.60;59.90;;;;;;6065153;23;20887;-80
2023/06/03 02:14:54;;;;;;;1.70;0.82;;;19.60;60.20;;;;;;6065101;23;20387;-80
2023/06/03 02:17:22;;;;;;;1.37;0.90;;;19.50;60.60;;;;;;6065463;23;20383;-80
2023/06/03 02:19:49;;;;;;;0.73;0.50;;;19.50;60.90;;;;;;6065206;23;20393;-82
2023/06/03 02:22:20;;;;;;;1.80;0.82;;;19.50;61.30;;;;;;6065737;23;20408;-83
2023/06/03 02:24:49;;;;;;;1.70;0.80;;;19.40;61.10;;;;;;6064707;23;20389;-83
2023/06/03 02:27:24;;;;;;;1.23;0.90;;;19.40;62.10;;;;;;6065903;23;20855;-83
2023/06/03 02:29:52;;;;;;;1.13;0.88;;;19.40;63.00;;;;;;6065103;23;20389;-83
2023/06/03 02:32:19;;;;;;;1.55;1.00;;;19.30;64.90;;;;;;6065847;23;20391;-82
2023/06/03 02:34:50;;;;;;;1.70;0.90;;;19.20;66.60;;;;;;6090082;23;20404;-82
2023/06/03 02:37:17;;;;;;;1.35;1.10;;;19.10;67.60;;;;;;6065402;23;20444;-80
2023/06/03 02:39:45;;;;;;;1.50;1.08;;;19.00;68.40;;;;;;6064429;23;20385;-80
2023/06/03 02:42:12;;;;;;;1.70;0.93;;;19.00;68.60;;;;;;6064943;23;20389;-80
2023/06/03 02:44:39;;;;;;;1.70;0.65;;;18.90;69.10;;;;;;6064362;23;20389;-80
2023/06/03 02:47:06;;;;;;;1.20;0.70;;;18.90;68.80;;;;;;6065166;23;20380;-80
2023/06/03 02:49:33;;;;;;;1.08;0.80;;;18.80;68.90;;;;;;6064976;23;20720;-80
2023/06/03 02:52:00;;;;;;;1.13;0.83;;;18.80;68.90;;;;;;6064694;23;20391;-80
2023/06/03 02:54:27;;;;;;;3.07;0.93;;;18.80;69.60;;;;;;6090554;23;21263;-80
2023/06/03 02:56:54;;;;;;;1.17;0.90;;;18.70;73.20;;;;;;6064278;23;20441;-79
2023/06/03 02:59:21;;;;;;;1.60;1.10;;;18.70;74.00;;;;;;6065768;23;20389;-80
2023/06/03 03:01:48;;;;;;;1.15;1.00;;;18.60;76.20;;;;;;6089216;23;20393;-80
2023/06/03 03:04:15;;;;;;;2.07;1.33;;;18.60;76.40;;;;;;6065266;23;20382;-84
2023/06/03 03:06:43;;;;;;;1.97;1.20;;;18.60;77.60;;;;;;6064266;23;20472;-80
2023/06/03 03:09:10;;;;;;;2.80;1.63;;;18.60;78.90;;;;;;6064973;23;20378;-80
2023/06/03 03:11:37;;;;;;;2.40;2.08;;;18.60;81.80;;;;;;6090213;23;20432;-81
2023/06/03 03:14:06;;;;;;;2.70;2.33;;;18.50;88.70;;;;;;6064936;23;20804;-80
2023/06/03 03:16:35;;;;;;;2.63;2.10;;;18.50;91.00;;;;;;6064845;23;20392;-80
2023/06/03 03:19:02;;;;;;;3.30;2.45;;;18.50;91.40;;;;;;6064155;23;20381;-80
2023/06/03 03:21:29;;;;;;;2.33;2.10;;;18.50;91.50;;;;;;6064638;23;20385;-80
2023/06/03 03:23:56;;;;;;;2.50;2.30;;;18.50;91.60;;;;;;6064474;23;20381;-81
2023/06/03 03:26:25;;;;;;;3.33;2.67;;;18.50;91.80;;;;;;6065054;23;20385;-80
2023/06/03 03:28:53;;;;;;;2.30;2.10;;;18.50;92.10;;;;;;6089256;23;20719;-80
2023/06/03 03:31:20;;;;;;;3.03;2.35;;;18.50;91.90;;;;;;6065127;23;20405;-80
2023/06/03 03:33:50;;;;;;;3.33;2.42;;;18.50;91.70;;;;;;6064422;23;20697;-81
2023/06/03 03:36:24;;;;;;;3.67;2.40;;;18.50;91.40;;;;;;6064959;23;20522;-80
2023/06/03 03:39:06;;;;;;;2.60;2.15;;;18.50;91.00;;;;;;6064033;23;20390;-80
2023/06/03 03:41:33;;;;;;;2.30;2.05;;;18.60;90.70;;;;;;6065279;23;20798;-80
2023/06/03 03:44:00;;;;;;;2.60;1.90;;;18.60;90.10;;;;;;6063843;23;20384;-80
2023/06/03 03:46:27;;;;;;;3.38;1.60;;;18.60;91.40;;;;;;6065400;23;20594;-81
2023/06/03 03:48:54;;;;;;;2.25;1.95;;;18.50;91.30;;;;;;6063796;23;20384;-80
2023/06/03 03:51:21;;;;;;;2.85;2.03;;;18.50;92.30;;;;;;6064733;23;20391;-81
2023/06/03 03:53:49;;;;;;;2.38;2.00;;;18.50;92.80;;;;;;6089080;23;20385;-80
2023/06/03 03:56:21;;;;;;;2.80;1.98;;;18.40;92.30;;;;;;6089778;23;20406;-80
2023/06/03 03:58:49;;;;;;;3.00;1.58;;;18.40;91.70;;;;;;6063905;23;20479;-81
2023/06/03 04:01:18;;;;;;;2.75;2.00;;;18.50;91.30;;;;;;6065602;23;20385;-80
2023/06/03 04:03:47;;;;;;;2.50;2.10;;;18.40;91.50;;;;;;6065342;23;20385;-80
2023/06/03 04:06:32;;;;;;;3.10;2.10;;;18.40;92.40;;;;;;6067124;23;20405;-80
2023/06/03 04:09:01;;;;;;;5.75;5.18;;;18.40;90.80;;;;;;6065718;23;20381;-80
2023/06/03 04:11:30;;;;;;;9.48;7.30;;;18.50;91.30;;;;;;6066165;23;20405;-81
2023/06/03 04:13:58;;;;;;;7.70;6.50;;;18.60;90.60;;;;;;6065736;23;20381;-80
2023/06/03 04:16:28;;;;;;;6.30;5.70;;;18.70;90.80;;;;;;6066819;23;20733;-81
2023/06/03 04:18:55;;;;;;;4.63;4.13;;;18.80;90.10;;;;;;6089660;23;20385;-80
2023/06/03 04:21:22;;;;;;;6.60;5.05;;;18.90;89.30;;;;;;6066157;23;20392;-80
2023/06/03 04:23:50;;;;;;;6.70;6.10;;;18.90;88.60;;;;;;6065422;23;20389;-80
2023/06/03 04:26:19;;;;;;;3.85;3.53;;;18.90;89.30;;;;;;6066332;23;20699;-80
2023/06/03 04:28:46;;;;;;;6.22;4.22;;;19.00;91.70;;;;;;6065566;23;20388;-80
2023/06/03 04:31:13;;;;;;;7.93;4.78;;;18.90;94.50;;;;;;6066502;23;20405;-80
2023/06/03 04:33:39;;;;;;;6.57;4.88;;;18.70;99.10;;;;;;6066294;23;20839;-80
2023/06/03 04:36:06;;;;;;;7.28;6.57;;;18.50;99.90;;;;;;6065621;23;20378;-80
2023/06/03 04:38:34;;;;;;;9.68;8.60;;;18.30;99.90;;;;;;6066540;23;20389;-80
2023/06/03 04:41:02;;;;;;;9.48;7.22;;;18.20;99.90;;;;;;6065318;23;20396;-80
2023/06/03 04:43:29;;;;;;;8.47;7.30;;;18.10;99.90;;;;;;6065717;23;20410;-80
2023/06/03 04:45:56;;;;;;;7.97;7.18;;;18.00;99.90;;;;;;6064964;23;20386;-80
2023/06/03 04:48:23;;;;;;;8.85;7.32;;;17.90;99.90;;;;;;6091200;23;20436;-80
2023/06/03 04:50:50;;;;;;;8.88;6.35;;;17.80;99.90;;;;;;6065918;23;20382;-80
2023/06/03 04:53:18;;;;;;;7.65;6.85;;;17.80;99.90;;;;;;6066276;23;20378;-80
2023/06/03 04:55:45;;;;;;;6.60;5.83;;;17.80;99.90;;;;;;6066291;23;20382;-81
2023/06/03 04:58:12;;;;;;;7.10;6.20;;;17.80;99.90;;;;;;6065593;23;20970;-80
2023/06/03 05:00:42;;;;;;;8.10;7.13;;;17.80;99.90;;;;;;6091667;23;20700;-80
2023/06/03 05:03:09;;;;;;;8.10;7.27;;;17.80;99.90;;;;;;6064894;23;20824;-80
2023/06/03 05:05:41;;;;;;;8.20;7.13;;;17.80;99.90;;;;;;6066692;23;20419;-81
2023/06/03 05:08:10;;;;;;;8.27;7.00;;;17.80;99.90;;;;;;6065273;23;20380;-80
2023/06/03 05:10:37;;;;;;;8.82;6.78;;;17.80;99.90;;;;;;6065987;23;20401;-81
2023/06/03 05:13:06;;;;;;;9.15;7.60;;;17.80;99.90;;;;;;6064669;23;20392;-80
2023/06/03 05:15:34;;;;;;;8.63;7.82;;;17.80;99.90;;;;;;6066408;23;20385;-81
2023/06/03 05:18:04;;;;;;;8.80;7.90;;;17.80;99.90;;;;;;6064819;23;20381;-81
2023/06/03 05:20:31;;;;;;;8.65;7.75;;;17.80;99.90;;;;;;6065975;23;20693;-81
2023/06/03 05:22:58;;;;;;;8.65;7.85;;;17.70;99.90;;;;;;6065295;23;20440;-80
2023/06/03 05:25:25;;;;;;;9.13;7.85;;;17.70;99.90;;;;;;6065930;23;20388;-81
2023/06/03 05:27:53;;;;;;;7.88;7.07;;;17.80;99.90;;;;;;6089505;23;20419;-80
2023/06/03 05:30:30;;;;;;;7.72;7.03;;;17.80;99.90;;;;;;6091004;23;20381;-80
2023/06/03 05:32:57;;;;;;;9.23;7.38;;;17.80;99.90;;;;;;6064797;23;20400;-81
2023/06/03 05:35:24;;;;;;;8.20;7.40;;;17.90;99.90;;;;;;6091115;23;20440;-81
2023/06/03 05:37:51;;;;;;;8.02;7.22;;;17.90;99.90;;;;;;6064653;23;20381;-81
2023/06/03 05:40:18;;;;;;;8.50;7.60;;;18.00;99.90;;;;;;6065810;23;20452;-81
2023/06/03 05:42:47;;;;;;;8.23;7.40;;;18.00;99.90;;;;;;6090550;23;20393;-80
2023/06/03 05:45:15;;;;;;;7.97;7.22;;;18.00;99.90;;;;;;6064749;23;20378;-80
2023/06/03 05:47:42;;;;;;;8.32;7.30;;;18.10;99.90;;;;;;6065757;23;20445;-81
2023/06/03 05:50:09;;;;;;;8.63;7.70;;;18.10;99.90;;;;;;6064477;23;20385;-81
2023/06/03 05:52:36;;;;;;;7.47;6.77;;;18.20;99.90;;;;;;6065885;23;20381;-80
2023/06/03 05:55:03;;;;;;;9.43;7.70;;;18.30;99.90;;;;;;6064588;23;20860;-80
2023/06/03 05:57:30;;;;;;;8.43;7.47;;;18.40;99.90;;;;;;6065719;23;20720;-81
2023/06/03 05:59:57;;;;;;;9.18;7.55;;;18.60;99.90;;;;;;6064608;23;20381;-81
2023/06/03 06:02:24;;;;;;;9.37;8.40;;;18.70;99.90;;;;;;6065700;23;20386;-81
2023/06/03 06:04:51;;;;;;;8.13;7.32;;;18.80;99.90;;;;;;6089429;23;20456;-81
2023/06/03 06:07:18;;;;;;;7.88;7.07;;;19.00;99.90;;;;;;6091176;23;20732;-80
2023/06/03 06:09:45;;;;;;;7.75;6.97;;;19.10;99.90;;;;;;6065029;23;20417;-80
2023/06/03 06:12:12;;;;;;;9.07;8.18;;;19.10;99.90;;;;;;6064390;23;20381;-81
2023/06/03 06:14:39;;;;;;;8.27;7.50;;;19.30;99.90;;;;;;6065516;23;20377;-81
2023/06/03 06:17:07;;;;;;;10.30;8.57;;;19.40;99.90;;;;;;6064904;23;20379;-80
2023/06/03 06:19:35;;;;;;;9.35;7.93;;;19.50;99.90;;;;;;6065232;23;20453;-81
2023/06/03 06:22:03;;;;;;;10.88;9.70;;;19.60;99.90;;;;;;6064568;23;20723;-80
2023/06/03 06:24:29;;;;;;;10.32;9.32;;;19.70;99.90;;;;;;6065352;23;20443;-80
2023/06/03 06:26:56;;;;;;;9.55;8.57;;;19.80;99.90;;;;;;6065205;23;20385;-80
2023/06/03 06:29:23;;;;;;;10.20;9.30;;;19.80;99.90;;;;;;6065621;23;20377;-80
2023/06/03 06:31:51;;;;;;;10.18;8.80;;;19.90;99.90;;;;;;6065896;23;20379;-80
2023/06/03 06:34:18;;;;;;;7.57;6.88;;;20.00;99.90;;;;;;6065148;23;20712;-80
2023/06/03 06:36:49;;;;;;;8.90;8.07;;;20.00;99.40;;;;;;6065980;23;20384;-80
2023/06/03 06:39:28;;;;;;;7.22;6.63;;;20.10;98.50;;;;;;6065128;23;20381;-80
2023/06/03 06:42:23;;;;;;;9.40;8.40;;;20.20;98.00;;;;;;6088488;23;20397;-80
2023/06/03 06:44:51;;;;;;;10.40;9.27;;;20.30;97.60;;;;;;6065922;23;20384;-80
2023/06/03 06:47:25;;;;;;;9.73;8.73;;;20.30;97.30;;;;;;6089931;23;20417;-80
2023/06/03 06:49:55;;;;;;;7.70;7.00;;;20.40;96.80;;;;;;6065527;23;20377;-80
2023/06/03 06:52:23;;;;;;;9.15;7.85;;;20.50;96.50;;;;;;6065342;23;20373;-80
2023/06/03 06:54:54;;;;;;;9.95;8.88;;;20.60;96.30;;;;;;6065423;23;20378;-80
2023/06/03 06:57:28;;;;;;;9.87;8.87;;;20.70;95.70;;;;;;6064949;23;20370;-81
2023/06/03 06:59:55;;;;;;;10.88;9.80;;;20.70;96.10;;;;;;6065489;23;20382;-80
2023/06/03 07:02:22;;;;;;;10.07;8.93;;;20.70;95.90;;;;;;6064986;23;20704;-81
2023/06/03 07:04:50;;;;;;;12.32;10.27;;;20.70;96.00;;;;;;6090346;23;20480;-81
2023/06/03 07:07:18;;;;;;;9.95;9.05;;;20.70;95.80;;;;;;6065244;23;20382;-81
2023/06/03 07:09:44;;;;;;;10.10;9.07;;;20.80;95.90;;;;;;6065590;23;20377;-79
2023/06/03 07:12:11;;;;;;;10.55;9.60;;;20.80;95.20;;;;;;6064788;23;20384;-81
2023/06/03 07:14:38;;;;;;;8.90;8.10;;;20.80;95.40;;;;;;6090679;23;20397;-79
2023/06/03 07:17:06;;;;;;;11.07;9.93;;;20.90;94.60;;;;;;6090068;23;20381;-78
2023/06/03 07:19:37;;;;;;;10.52;9.60;;;20.90;93.80;;;;;;6065390;23;20385;-80
2023/06/03 07:22:05;;;;;;;9.82;8.93;;;20.90;94.40;;;;;;6063798;23;20385;-79
2023/06/03 07:24:35;;;;;;;10.63;9.60;;;20.90;94.60;;;;;;6065599;23;20389;-78
2023/06/03 07:27:07;;;;;;;11.95;10.73;;;20.90;94.20;;;;;;6089751;23;20437;-80
2023/06/03 07:29:38;;;;;;;10.63;9.57;;;20.90;92.70;;;;;;6065350;23;20412;-78
2023/06/03 07:32:09;;;;;;;11.45;10.35;;;21.00;93.70;;;;;;6064795;23;20461;-79
2023/06/03 07:34:36;;;;;;;9.77;8.77;;;20.90;92.80;;;;;;6065793;23;20720;-80
2023/06/03 07:37:09;;;;;;;11.20;10.10;;;20.90;94.20;;;;;;6066748;23;20381;-78
2023/06/03 07:39:36;;;;;;;11.70;10.50;;;20.90;92.20;;;;;;6067858;23;20389;-78
2023/06/03 07:42:09;;;;;;;10.77;9.73;;;20.90;89.30;;;;;;6089960;23;20386;-78
2023/06/03 07:44:44;;;;;;;12.80;9.85;;;20.90;90.90;;;;;;6067712;23;20776;-78
2023/06/03 07:47:16;;;;;;;10.20;9.20;;;21.00;91.50;;;;;;6066442;23;20381;-78
2023/06/03 07:49:48;;;;;;;9.73;8.73;;;21.10;90.70;;;;;;6067621;23;20689;-78
2023/06/03 07:52:19;;;;;;;9.55;8.65;;;21.10;90.60;;;;;;6066397;23;20697;-78
2023/06/03 07:54:48;;;;;;;9.80;8.90;;;21.20;90.90;;;;;;6067673;23;20377;-79
2023/06/03 07:57:15;;;;;;;10.88;9.88;;;21.30;91.10;;;;;;6066468;23;20810;-78
2023/06/03 07:59:52;;;;;;;11.18;10.07;;;21.40;90.10;;;;;;6067300;23;20379;-79
2023/06/03 08:02:20;;;;;;;10.48;9.45;;;21.50;90.30;;;;;;6066611;23;20420;-78
2023/06/03 08:04:47;;;;;;;9.02;8.13;;;21.70;86.90;;;;;;6067054;23;20396;-80
2023/06/03 08:07:15;;;;;;;11.52;10.43;;;21.80;88.40;;;;;;6066835;23;20385;-79
2023/06/03 08:09:43;;;;;;;11.02;9.93;;;22.00;86.70;;;;;;6067483;23;20389;-80
2023/06/03 08:12:10;;;;;;;11.77;10.55;;;22.20;84.80;;;;;;6066748;23;20392;-81
2023/06/03 08:14:39;;;;;;;10.65;9.63;;;22.30;84.90;;;;;;6067501;23;20451;-81
2023/06/03 08:17:12;;;;;;;11.02;9.95;;;22.40;83.20;;;;;;6066986;23;20385;-79
2023/06/03 08:19:43;;;;;;;11.50;10.30;;;22.60;82.50;;;;;;6066613;23;20851;-79
2023/06/03 08:22:39;;;;;;;11.27;10.18;;;22.60;77.50;;;;;;6066170;23;20436;-79
2023/06/03 08:25:07;;;;;;;11.30;9.57;;;22.70;78.60;;;;;;6063321;23;20385;-79
2023/06/03 08:27:35;;;;;;;10.97;9.97;;;22.90;79.00;;;;;;6067218;23;20381;-80
2023/06/03 08:30:03;;;;;;;11.23;10.18;;;23.00;78.20;;;;;;6067127;23;20389;-79
2023/06/03 08:32:34;;;;;;;11.00;10.00;;;23.10;77.00;;;;;;6066257;23;20374;-80
2023/06/03 08:35:02;;;;;;;11.02;9.93;;;23.10;74.30;;;;;;6067168;23;20374;-80
2023/06/03 08:37:30;;;;;;;10.88;9.88;;;23.10;75.20;;;;;;6091186;23;20381;-80
2023/06/03 08:39:57;;;;;;;11.50;10.32;;;23.10;76.00;;;;;;6067290;23;20711;-79
2023/06/03 08:42:30;;;;;;;12.23;10.40;;;23.10;76.20;;;;;;6066358;23;20401;-79
2023/06/03 08:45:04;;;;;;;12.60;11.30;;;23.10;77.50;;;;;;6066950;23;20392;-80
2023/06/03 08:48:02;;;;;;;11.80;10.60;;;23.20;77.30;;;;;;6066259;23;20790;-79
2023/06/03 08:50:35;;;;;;;12.85;11.35;;;23.30;77.80;;;;;;6090966;23;20381;-79
2023/06/03 08:53:08;;;;;;;10.98;9.88;;;23.30;76.40;;;;;;6066842;23;20413;-79
2023/06/03 08:55:40;;;;;;;11.30;10.15;;;23.30;77.60;;;;;;6091744;23;20377;-80
2023/06/03 08:58:23;;;;;;;11.02;9.93;;;23.40;74.60;;;;;;6066590;23;20384;-79
2023/06/03 09:00:55;;;;;;;12.35;11.15;;;23.40;73.90;;;;;;6066687;23;20381;-79
2023/06/03 09:03:23;;;;;;;13.10;11.90;;;23.40;74.80;;;;;;6090160;23;20386;-80
2023/06/03 09:05:51;;;;;;;13.13;11.82;;;23.40;75.40;;;;;;6090479;23;20377;-80
2023/06/03 09:08:19;;;;;;;12.65;11.52;;;23.30;75.80;;;;;;6091945;23;20373;-79
2023/06/03 09:10:48;;;;;;;11.48;10.48;;;23.30;75.80;;;;;;6091076;23;20775;-79
2023/06/03 09:13:16;;;;;;;12.67;11.47;;;23.30;76.70;;;;;;6092098;23;20385;-79
2023/06/03 09:15:43;;;;;;;12.33;11.17;;;23.30;77.60;;;;;;6091330;23;20859;-79
2023/06/03 09:18:13;;;;;;;13.30;12.00;;;23.40;78.20;;;;;;6066124;23;20389;-78
2023/06/03 09:20:41;;;;;;;14.20;12.82;;;23.50;77.40;;;;;;6066266;23;20381;-79
2023/06/03 09:23:11;;;;;;;12.30;11.10;;;23.50;77.70;;;;;;6066378;23;20385;-78
2023/06/03 09:25:38;;;;;;;12.38;11.23;;;23.50;76.60;;;;;;6065931;23;20745;-79
2023/06/03 09:28:05;;;;;;;12.97;11.80;;;23.60;76.70;;;;;;6066362;23;20378;-79
2023/06/03 09:30:35;;;;;;;12.98;11.77;;;23.70;75.50;;;;;;6066146;23;20456;-79
2023/06/03 09:33:02;;;;;;;14.47;12.97;;;23.70;75.60;;;;;;6066432;23;20377;-79
2023/06/03 09:35:29;;;;;;;14.02;12.73;;;23.70;75.60;;;;;;6089423;23;20386;-79
2023/06/03 09:38:01;;;;;;;14.15;12.75;;;23.60;75.00;;;;;;6066646;23;20433;-79
2023/06/03 09:40:29;;;;;;;13.85;12.55;;;23.50;77.10;;;;;;6065741;23;20716;-79
2023/06/03 09:42:57;;;;;;;13.85;12.55;;;23.40;77.80;;;;;;6066364;23;20374;-79
2023/06/03 09:45:29;;;;;;;15.05;13.65;;;23.30;77.40;;;;;;6091855;23;20739;-79
2023/06/03 09:48:01;;;;;;;14.18;12.88;;;23.30;79.40;;;;;;6066157;23;20840;-78
2023/06/03 09:50:31;;;;;;;15.23;13.63;;;23.30;80.90;;;;;;6066120;23;20855;-78
2023/06/03 09:53:00;;;;;;;14.43;13.02;;;23.30;82.10;;;;;;6091120;23;20489;-79
2023/06/03 09:55:32;;;;;;;14.75;13.45;;;23.40;81.30;;;;;;6091595;23;20411;-79
2023/06/03 09:58:08;;;;;;;14.43;13.10;;;23.50;81.20;;;;;;6065452;23;20385;-78
2023/06/03 10:00:51;;;;;;;14.25;12.93;;;23.70;82.80;;;;;;6065696;23;20785;-79
2023/06/03 10:03:25;;;;;;;14.35;12.95;;;24.00;79.00;;;;;;6065207;23;20420;-79
2023/06/03 10:05:52;;;;;;;13.57;12.38;;;24.00;76.90;;;;;;6089425;23;20709;-78
2023/06/03 10:08:29;;;;;;;12.43;11.33;;;24.20;75.60;;;;;;6090267;23;20694;-79
2023/06/03 10:10:58;;;;;;;13.32;11.98;;;24.30;72.80;;;;;;6065264;23;20381;-79
2023/06/03 10:13:26;;;;;;;14.27;12.75;;;24.60;72.50;;;;;;6066508;23;20376;-79
2023/06/03 10:15:53;;;;;;;14.18;12.80;;;24.80;69.70;;;;;;6066023;23;20755;-78
2023/06/03 10:18:41;;;;;;;12.47;11.27;;;24.80;66.90;;;;;;6065654;23;20685;-79
2023/06/03 10:21:10;;;;;;;14.27;12.88;;;24.70;67.10;;;;;;6065314;23;20840;-79
2023/06/03 10:23:38;;;;;;;14.50;13.10;;;24.80;69.50;;;;;;6091568;23;20702;-79
2023/06/03 10:26:06;;;;;;;15.30;13.88;;;24.80;69.20;;;;;;6065295;23;20441;-79
2023/06/03 10:28:37;;;;;;;12.63;11.45;;;24.90;68.20;;;;;;6063936;23;20756;-78
2023/06/03 10:31:05;;;;;;;13.18;11.95;;;25.00;67.40;;;;;;6064302;23;20764;-79
2023/06/03 10:33:35;;;;;;;12.77;11.48;;;25.10;66.00;;;;;;6065460;23;20484;-78
2023/06/03 10:36:03;;;;;;;13.00;11.80;;;25.20;67.20;;;;;;6064453;23;20553;-78
2023/06/03 10:38:32;;;;;;;13.13;11.82;;;25.40;66.60;;;;;;6065678;23;20412;-79
2023/06/03 10:41:01;;;;;;;13.85;12.48;;;25.60;65.30;;;;;;6064366;23;20767;-78
2023/06/03 10:43:30;;;;;;;13.75;12.43;;;25.70;64.20;;;;;;6065490;23;20386;-78
2023/06/03 10:45:59;;;;;;;14.23;13.00;;;25.60;63.70;;;;;;6063817;23;20384;-78
2023/06/03 10:48:28;;;;;;;13.60;12.40;;;25.50;64.80;;;;;;6065225;23;20389;-78
2023/06/03 10:51:13;;;;;;;14.35;12.98;;;25.40;65.30;;;;;;6088405;23;20382;-78
2023/06/03 10:54:09;;;;;;;14.68;13.38;;;25.50;67.00;;;;;;6090073;23;20389;-77
2023/06/03 10:56:47;;;;;;;14.45;13.15;;;25.40;63.80;;;;;;6090164;23;20756;-78
2023/06/03 10:59:18;;;;;;;13.88;12.57;;;25.10;61.20;;;;;;6064221;23;20385;-78
2023/06/03 11:02:01;;;;;;;14.57;13.23;;;24.90;65.00;;;;;;6065986;23;20382;-78
2023/06/03 11:04:30;;;;;;;15.35;14.00;;;24.90;67.80;;;;;;6089323;23;20386;-78
2023/06/03 11:06:58;;;;;;;13.65;12.35;;;24.90;69.10;;;;;;6065550;23;20515;-78
2023/06/03 11:09:34;;;;;;;13.80;12.40;;;24.90;70.10;;;;;;6089062;23;20378;-78
2023/06/03 11:12:14;;;;;;;13.65;12.27;;;25.10;68.00;;;;;;6089780;23;20456;-78
2023/06/03 11:14:50;;;;;;;13.32;12.13;;;25.50;66.70;;;;;;6089987;23;20750;-80
2023/06/03 11:17:19;;;;;;;12.65;11.55;;;25.70;65.60;;;;;;6090019;23;20757;-78
2023/06/03 18:55:09;;;;;;;6.60;6.00;;;22.70;87.90;;;;;;6065273;22;2005419;-80
2023/06/03 18:57:36;;;;;;;5.60;5.10;;;22.70;91.20;;;;;;6060350;23;20394;-80
2023/06/03 19:00:04;;;;;;;7.03;5.03;;;22.60;92.00;;;;;;6060793;23;20382;-79
2023/06/03 19:02:31;;;;;;;5.22;4.70;;;22.60;92.50;;;;;;6058015;23;20383;-79
2023/06/03 19:04:58;;;;;;;5.95;5.35;;;22.60;92.90;;;;;;6034922;23;20389;-79
2023/06/03 19:07:25;;;;;;;6.25;5.65;;;22.60;92.40;;;;;;6030268;23;20396;-79
2023/06/03 19:09:52;;;;;;;6.00;5.50;;;22.60;92.10;;;;;;6032696;23;20410;-79
2023/06/03 19:12:19;;;;;;;5.80;5.30;;;22.60;91.10;;;;;;6031878;23;20393;-79
2023/06/03 19:14:46;;;;;;;5.38;4.97;;;22.50;90.40;;;;;;6033080;23;20392;-79
2023/06/03 19:17:13;;;;;;;4.65;4.25;;;22.50;90.30;;;;;;6032424;23;20384;-79
2023/06/03 19:19:39;;;;;;;4.10;3.80;;;22.40;90.50;;;;;;6031257;23;20392;-79
2023/06/03 19:22:06;;;;;;;4.28;3.97;;;22.40;90.90;;;;;;6032836;23;20393;-79
2023/06/03 19:24:33;;;;;;;5.30;4.90;;;22.40;91.30;;;;;;6031898;23;20784;-79
2023/06/03 19:27:00;;;;;;;6.00;5.50;;;22.40;92.30;;;;;;6031547;23;20388;-79
2023/06/03 19:29:27;;;;;;;6.20;5.60;;;22.30;93.30;;;;;;6031445;23;20712;-80
2023/06/03 19:31:54;;;;;;;5.25;4.75;;;22.20;93.60;;;;;;6031109;23;20741;-79
2023/06/03 19:34:21;;;;;;;5.28;4.82;;;22.20;93.20;;;;;;6031389;23;20768;-79
2023/06/03 19:36:48;;;;;;;6.20;5.70;;;22.10;93.40;;;;;;6031715;23;20799;-79
2023/06/03 19:39:15;;;;;;;4.75;4.43;;;22.10;93.90;;;;;;6031352;23;20436;-80
2023/06/03 19:41:42;;;;;;;6.10;5.50;;;22.00;94.00;;;;;;6031151;23;20926;-79
2023/06/03 19:44:09;;;;;;;7.05;5.05;;;22.00;94.70;;;;;;6031597;23;20407;-80
2023/06/03 19:46:36;;;;;;;5.53;5.03;;;21.90;94.50;;;;;;6031681;23;20407;-79
2023/06/03 19:49:03;;;;;;;5.88;5.28;;;21.80;94.90;;;;;;6031124;23;20377;-80
2023/06/03 19:51:31;;;;;;;6.13;5.28;;;21.80;95.60;;;;;;6031893;23;20388;-80
2023/06/03 19:53:59;;;;;;;5.85;5.35;;;21.70;95.90;;;;;;6030810;23;20385;-79
2023/06/03 19:56:27;;;;;;;5.63;5.10;;;21.60;96.80;;;;;;6008646;23;20722;-79
2023/06/03 19:58:54;;;;;;;5.93;5.43;;;21.60;97.20;;;;;;6031182;23;20385;-79
2023/06/03 20:01:21;;;;;;;6.45;5.85;;;21.60;97.70;;;;;;6032648;23;20397;-79
2023/06/03 20:03:48;;;;;;;7.80;6.40;;;21.50;97.10;;;;;;6030940;23;20770;-79
2023/06/03 20:06:15;;;;;;;6.30;5.80;;;21.50;96.90;;;;;;6032438;23;20389;-80
2023/06/03 20:08:42;;;;;;;5.22;4.78;;;21.50;97.30;;;;;;6032654;23;20383;-79
2023/06/03 20:11:09;;;;;;;6.30;5.70;;;21.50;97.60;;;;;;6031223;23;20377;-80
2023/06/03 20:13:37;;;;;;;7.33;5.93;;;21.50;97.50;;;;;;6032044;23;20847;-80
2023/06/03 20:16:05;;;;;;;6.72;6.03;;;21.40;97.90;;;;;;6030204;23;20460;-79
2023/06/03 20:18:32;;;;;;;6.10;5.50;;;21.40;98.70;;;;;;6033277;23;20505;-79
2023/06/03 20:21:00;;;;;;;6.93;5.88;;;21.40;98.90;;;;;;6030241;23;20419;-80
2023/06/03 20:23:27;;;;;;;5.30;4.82;;;21.40;99.30;;;;;;6031706;23;20383;-80
2023/06/03 20:25:55;;;;;;;5.20;4.80;;;21.30;99.10;;;;;;6030653;23;20811;-80